sensor_id;sensor_type;location;lat;lon;timestamp;P1;durP1;ratioP1;P2;durP2;ratioP2
69754;SDS011;57023;52.218;5.158;2023-06-26T00:00:47;9.97;;;8.20;;
69754;SDS011;57023;52.218;5.158;2023-06-26T00:03:13;9.47;;;7.63;;
69754;SDS011;57023;52.218;5.158;2023-06-26T00:05:40;9.40;;;7.90;;
69754;SDS011;57023;52.218;5.158;2023-06-26T00:08:08;10.02;;;8.02;;
69754;SDS011;57023;52.218;5.158;2023-06-26T00:10:34;10.53;;;7.90;;
69754;SDS011;57023;52.218;5.158;2023-06-26T00:12:59;9.47;;;8.03;;
69754;SDS011;57023;52.218;5.158;2023-06-26T00:15:25;10.30;;;7.90;;
69754;SDS011;57023;52.218;5.158;2023-06-26T00:17:50;9.97;;;7.57;;
69754;SDS011;57023;52.218;5.158;2023-06-26T00:20:16;11.07;;;7.30;;
69754;SDS011;57023;52.218;5.158;2023-06-26T00:22:41;9.40;;;7.43;;
69754;SDS011;57023;52.218;5.158;2023-06-26T00:25:07;10.67;;;7.93;;
69754;SDS011;57023;52.218;5.158;2023-06-26T00:27:32;9.00;;;7.80;;
69754;SDS011;57023;52.218;5.158;2023-06-26T00:29:58;8.90;;;7.23;;
69754;SDS011;57023;52.218;5.158;2023-06-26T00:32:23;9.40;;;7.47;;
69754;SDS011;57023;52.218;5.158;2023-06-26T00:34:48;9.90;;;8.40;;
69754;SDS011;57023;52.218;5.158;2023-06-26T00:37:14;9.60;;;8.03;;
69754;SDS011;57023;52.218;5.158;2023-06-26T00:39:39;9.70;;;7.60;;
69754;SDS011;57023;52.218;5.158;2023-06-26T00:42:05;10.00;;;7.80;;
69754;SDS011;57023;52.218;5.158;2023-06-26T00:44:31;11.33;;;7.83;;
69754;SDS011;57023;52.218;5.158;2023-06-26T00:46:56;9.10;;;7.33;;
69754;SDS011;57023;52.218;5.158;2023-06-26T00:49:22;9.53;;;7.67;;
69754;SDS011;57023;52.218;5.158;2023-06-26T00:51:48;11.83;;;7.63;;
69754;SDS011;57023;52.218;5.158;2023-06-26T00:54:13;11.00;;;7.40;;
69754;SDS011;57023;52.218;5.158;2023-06-26T00:56:44;9.35;;;7.45;;
69754;SDS011;57023;52.218;5.158;2023-06-26T00:59:10;8.77;;;7.40;;
69754;SDS011;57023;52.218;5.158;2023-06-26T01:01:35;8.33;;;7.17;;
69754;SDS011;57023;52.218;5.158;2023-06-26T01:04:01;8.90;;;7.17;;
69754;SDS011;57023;52.218;5.158;2023-06-26T01:06:27;10.13;;;7.10;;
69754;SDS011;57023;52.218;5.158;2023-06-26T01:08:54;9.52;;;6.90;;
69754;SDS011;57023;52.218;5.158;2023-06-26T01:11:19;9.33;;;6.47;;
69754;SDS011;57023;52.218;5.158;2023-06-26T01:13:46;11.00;;;6.82;;
69754;SDS011;57023;52.218;5.158;2023-06-26T01:16:11;8.63;;;6.40;;
69754;SDS011;57023;52.218;5.158;2023-06-26T01:18:38;11.33;;;7.23;;
69754;SDS011;57023;52.218;5.158;2023-06-26T01:21:08;10.52;;;6.93;;
69754;SDS011;57023;52.218;5.158;2023-06-26T01:28:33;9.85;;;6.70;;
69754;SDS011;57023;52.218;5.158;2023-06-26T01:30:59;9.35;;;6.40;;
69754;SDS011;57023;52.218;5.158;2023-06-26T01:33:25;12.33;;;6.67;;
69754;SDS011;57023;52.218;5.158;2023-06-26T01:35:50;8.80;;;6.23;;
69754;SDS011;57023;52.218;5.158;2023-06-26T01:38:17;10.53;;;5.47;;
69754;SDS011;57023;52.218;5.158;2023-06-26T01:40:44;9.27;;;6.15;;
69754;SDS011;57023;52.218;5.158;2023-06-26T01:46:05;9.90;;;5.55;;
69754;SDS011;57023;52.218;5.158;2023-06-26T01:48:48;10.85;;;5.50;;
69754;SDS011;57023;52.218;5.158;2023-06-26T01:51:16;8.18;;;5.45;;
69754;SDS011;57023;52.218;5.158;2023-06-26T01:53:45;7.22;;;5.10;;
69754;SDS011;57023;52.218;5.158;2023-06-26T01:56:13;10.48;;;5.15;;
69754;SDS011;57023;52.218;5.158;2023-06-26T01:58:43;10.38;;;5.40;;
69754;SDS011;57023;52.218;5.158;2023-06-26T02:01:09;8.55;;;4.88;;
69754;SDS011;57023;52.218;5.158;2023-06-26T02:03:34;10.40;;;5.30;;
69754;SDS011;57023;52.218;5.158;2023-06-26T02:06:00;9.80;;;5.10;;
69754;SDS011;57023;52.218;5.158;2023-06-26T02:08:25;8.77;;;5.23;;
69754;SDS011;57023;52.218;5.158;2023-06-26T02:10:50;8.63;;;4.90;;
69754;SDS011;57023;52.218;5.158;2023-06-26T02:13:16;7.53;;;5.00;;
69754;SDS011;57023;52.218;5.158;2023-06-26T02:15:41;9.77;;;5.07;;
69754;SDS011;57023;52.218;5.158;2023-06-26T02:18:06;9.73;;;5.32;;
69754;SDS011;57023;52.218;5.158;2023-06-26T02:20:32;9.38;;;5.03;;
69754;SDS011;57023;52.218;5.158;2023-06-26T02:22:58;10.55;;;5.60;;
69754;SDS011;57023;52.218;5.158;2023-06-26T02:25:23;11.57;;;5.30;;
69754;SDS011;57023;52.218;5.158;2023-06-26T02:27:49;9.00;;;5.37;;
69754;SDS011;57023;52.218;5.158;2023-06-26T02:30:14;10.00;;;5.17;;
69754;SDS011;57023;52.218;5.158;2023-06-26T02:32:39;13.88;;;5.43;;
69754;SDS011;57023;52.218;5.158;2023-06-26T02:35:05;9.80;;;5.60;;
69754;SDS011;57023;52.218;5.158;2023-06-26T02:37:31;9.75;;;5.47;;
69754;SDS011;57023;52.218;5.158;2023-06-26T02:39:56;10.23;;;5.28;;
69754;SDS011;57023;52.218;5.158;2023-06-26T02:42:21;12.20;;;5.73;;
69754;SDS011;57023;52.218;5.158;2023-06-26T02:44:47;11.43;;;5.50;;
69754;SDS011;57023;52.218;5.158;2023-06-26T02:47:12;10.68;;;5.53;;
69754;SDS011;57023;52.218;5.158;2023-06-26T02:49:38;14.00;;;5.57;;
69754;SDS011;57023;52.218;5.158;2023-06-26T02:52:03;16.02;;;5.65;;
69754;SDS011;57023;52.218;5.158;2023-06-26T02:54:29;12.32;;;5.82;;
69754;SDS011;57023;52.218;5.158;2023-06-26T02:56:54;14.63;;;5.50;;
69754;SDS011;57023;52.218;5.158;2023-06-26T02:59:19;10.45;;;6.00;;
69754;SDS011;57023;52.218;5.158;2023-06-26T03:01:45;14.98;;;5.90;;
69754;SDS011;57023;52.218;5.158;2023-06-26T03:04:10;13.57;;;6.10;;
69754;SDS011;57023;52.218;5.158;2023-06-26T03:06:36;14.77;;;5.95;;
69754;SDS011;57023;52.218;5.158;2023-06-26T03:09:01;13.88;;;6.28;;
69754;SDS011;57023;52.218;5.158;2023-06-26T03:11:27;12.57;;;6.23;;
69754;SDS011;57023;52.218;5.158;2023-06-26T03:13:53;12.40;;;6.03;;
69754;SDS011;57023;52.218;5.158;2023-06-26T03:16:19;16.35;;;6.15;;
69754;SDS011;57023;52.218;5.158;2023-06-26T03:18:44;14.48;;;6.05;;
69754;SDS011;57023;52.218;5.158;2023-06-26T03:21:10;17.88;;;6.45;;
69754;SDS011;57023;52.218;5.158;2023-06-26T03:23:35;13.20;;;6.03;;
69754;SDS011;57023;52.218;5.158;2023-06-26T03:26:00;14.52;;;6.50;;
69754;SDS011;57023;52.218;5.158;2023-06-26T03:28:26;13.98;;;6.70;;
69754;SDS011;57023;52.218;5.158;2023-06-26T03:30:51;11.52;;;5.90;;
69754;SDS011;57023;52.218;5.158;2023-06-26T03:33:16;16.50;;;6.15;;
69754;SDS011;57023;52.218;5.158;2023-06-26T03:35:42;16.08;;;6.13;;
69754;SDS011;57023;52.218;5.158;2023-06-26T03:38:07;12.57;;;5.75;;
69754;SDS011;57023;52.218;5.158;2023-06-26T03:40:33;12.98;;;6.07;;
69754;SDS011;57023;52.218;5.158;2023-06-26T03:42:58;19.85;;;6.32;;
69754;SDS011;57023;52.218;5.158;2023-06-26T03:45:23;16.30;;;6.43;;
69754;SDS011;57023;52.218;5.158;2023-06-26T03:47:49;15.32;;;6.70;;
69754;SDS011;57023;52.218;5.158;2023-06-26T03:50:18;15.02;;;6.18;;
69754;SDS011;57023;52.218;5.158;2023-06-26T03:52:44;13.18;;;6.25;;
69754;SDS011;57023;52.218;5.158;2023-06-26T03:55:09;12.43;;;5.75;;
69754;SDS011;57023;52.218;5.158;2023-06-26T03:57:35;13.77;;;5.95;;
69754;SDS011;57023;52.218;5.158;2023-06-26T04:00:00;15.90;;;5.57;;
69754;SDS011;57023;52.218;5.158;2023-06-26T04:02:26;14.20;;;5.55;;
69754;SDS011;57023;52.218;5.158;2023-06-26T04:04:51;12.65;;;5.82;;
69754;SDS011;57023;52.218;5.158;2023-06-26T04:07:17;13.25;;;5.50;;
69754;SDS011;57023;52.218;5.158;2023-06-26T04:09:43;12.35;;;5.65;;
69754;SDS011;57023;52.218;5.158;2023-06-26T04:12:08;17.58;;;6.32;;
69754;SDS011;57023;52.218;5.158;2023-06-26T04:14:33;15.70;;;5.72;;
69754;SDS011;57023;52.218;5.158;2023-06-26T04:16:59;11.75;;;5.15;;
69754;SDS011;57023;52.218;5.158;2023-06-26T04:19:26;11.88;;;5.40;;
69754;SDS011;57023;52.218;5.158;2023-06-26T04:21:52;12.95;;;5.95;;
69754;SDS011;57023;52.218;5.158;2023-06-26T04:24:17;14.93;;;5.65;;
69754;SDS011;57023;52.218;5.158;2023-06-26T04:26:42;10.68;;;5.13;;
69754;SDS011;57023;52.218;5.158;2023-06-26T04:29:10;17.92;;;5.60;;
69754;SDS011;57023;52.218;5.158;2023-06-26T04:31:35;10.60;;;5.28;;
69754;SDS011;57023;52.218;5.158;2023-06-26T04:34:01;13.13;;;5.10;;
69754;SDS011;57023;52.218;5.158;2023-06-26T04:36:26;12.30;;;5.07;;
69754;SDS011;57023;52.218;5.158;2023-06-26T04:38:54;10.90;;;5.15;;
69754;SDS011;57023;52.218;5.158;2023-06-26T04:41:20;11.15;;;4.97;;
69754;SDS011;57023;52.218;5.158;2023-06-26T04:43:46;9.63;;;4.70;;
69754;SDS011;57023;52.218;5.158;2023-06-26T04:46:11;8.40;;;4.60;;
69754;SDS011;57023;52.218;5.158;2023-06-26T04:48:37;7.65;;;4.50;;
69754;SDS011;57023;52.218;5.158;2023-06-26T04:51:02;9.00;;;4.20;;
69754;SDS011;57023;52.218;5.158;2023-06-26T04:53:27;10.52;;;4.70;;
69754;SDS011;57023;52.218;5.158;2023-06-26T04:55:53;8.02;;;4.30;;
69754;SDS011;57023;52.218;5.158;2023-06-26T04:58:18;11.70;;;4.30;;
69754;SDS011;57023;52.218;5.158;2023-06-26T05:00:44;9.27;;;4.10;;
69754;SDS011;57023;52.218;5.158;2023-06-26T05:03:11;10.70;;;4.40;;
69754;SDS011;57023;52.218;5.158;2023-06-26T05:05:37;8.38;;;4.05;;
69754;SDS011;57023;52.218;5.158;2023-06-26T05:10:43;8.50;;;3.97;;
69754;SDS011;57023;52.218;5.158;2023-06-26T05:13:09;6.63;;;3.67;;
69754;SDS011;57023;52.218;5.158;2023-06-26T05:15:35;7.90;;;3.80;;
69754;SDS011;57023;52.218;5.158;2023-06-26T05:18:00;8.75;;;3.80;;
69754;SDS011;57023;52.218;5.158;2023-06-26T05:20:25;7.40;;;3.92;;
69754;SDS011;57023;52.218;5.158;2023-06-26T05:22:51;6.38;;;3.90;;
69754;SDS011;57023;52.218;5.158;2023-06-26T05:25:17;6.38;;;3.65;;
69754;SDS011;57023;52.218;5.158;2023-06-26T05:27:43;9.60;;;3.78;;
69754;SDS011;57023;52.218;5.158;2023-06-26T05:30:09;6.68;;;3.58;;
69754;SDS011;57023;52.218;5.158;2023-06-26T05:32:35;6.95;;;3.47;;
69754;SDS011;57023;52.218;5.158;2023-06-26T05:35:02;6.50;;;3.55;;
69754;SDS011;57023;52.218;5.158;2023-06-26T05:37:29;6.93;;;3.25;;
69754;SDS011;57023;52.218;5.158;2023-06-26T05:39:54;7.05;;;3.50;;
69754;SDS011;57023;52.218;5.158;2023-06-26T05:42:20;8.48;;;3.50;;
69754;SDS011;57023;52.218;5.158;2023-06-26T05:44:45;6.38;;;3.50;;
69754;SDS011;57023;52.218;5.158;2023-06-26T05:47:10;6.85;;;3.40;;
69754;SDS011;57023;52.218;5.158;2023-06-26T05:49:36;7.50;;;3.50;;
69754;SDS011;57023;52.218;5.158;2023-06-26T05:52:01;7.68;;;3.63;;
69754;SDS011;57023;52.218;5.158;2023-06-26T05:54:27;8.38;;;3.80;;
69754;SDS011;57023;52.218;5.158;2023-06-26T05:56:53;6.63;;;3.50;;
69754;SDS011;57023;52.218;5.158;2023-06-26T05:59:22;7.03;;;3.85;;
69754;SDS011;57023;52.218;5.158;2023-06-26T06:01:47;7.55;;;3.33;;
69754;SDS011;57023;52.218;5.158;2023-06-26T06:04:13;7.95;;;3.30;;
69754;SDS011;57023;52.218;5.158;2023-06-26T06:06:38;6.07;;;3.30;;
69754;SDS011;57023;52.218;5.158;2023-06-26T06:09:03;6.28;;;3.35;;
69754;SDS011;57023;52.218;5.158;2023-06-26T06:11:29;5.20;;;3.40;;
69754;SDS011;57023;52.218;5.158;2023-06-26T06:13:54;6.88;;;3.38;;
69754;SDS011;57023;52.218;5.158;2023-06-26T06:16:19;6.60;;;3.20;;
69754;SDS011;57023;52.218;5.158;2023-06-26T06:18:45;7.20;;;3.05;;
69754;SDS011;57023;52.218;5.158;2023-06-26T06:21:13;6.22;;;3.20;;
69754;SDS011;57023;52.218;5.158;2023-06-26T06:23:38;11.20;;;3.95;;
69754;SDS011;57023;52.218;5.158;2023-06-26T06:26:03;5.68;;;3.35;;
69754;SDS011;57023;52.218;5.158;2023-06-26T06:28:29;6.07;;;3.40;;
69754;SDS011;57023;52.218;5.158;2023-06-26T06:30:54;7.30;;;3.63;;
69754;SDS011;57023;52.218;5.158;2023-06-26T06:33:19;5.65;;;3.55;;
69754;SDS011;57023;52.218;5.158;2023-06-26T06:35:45;7.00;;;3.53;;
69754;SDS011;57023;52.218;5.158;2023-06-26T06:38:10;6.80;;;3.40;;
69754;SDS011;57023;52.218;5.158;2023-06-26T06:40:36;7.15;;;4.07;;
69754;SDS011;57023;52.218;5.158;2023-06-26T06:43:01;9.27;;;3.50;;
69754;SDS011;57023;52.218;5.158;2023-06-26T06:45:27;7.43;;;3.67;;
69754;SDS011;57023;52.218;5.158;2023-06-26T06:47:52;8.98;;;4.10;;
69754;SDS011;57023;52.218;5.158;2023-06-26T06:50:17;10.68;;;4.10;;
69754;SDS011;57023;52.218;5.158;2023-06-26T06:52:43;9.15;;;3.80;;
69754;SDS011;57023;52.218;5.158;2023-06-26T06:55:08;6.70;;;4.00;;
69754;SDS011;57023;52.218;5.158;2023-06-26T06:57:37;9.25;;;4.07;;
69754;SDS011;57023;52.218;5.158;2023-06-26T07:00:04;8.48;;;3.95;;
69754;SDS011;57023;52.218;5.158;2023-06-26T07:02:33;7.32;;;3.60;;
69754;SDS011;57023;52.218;5.158;2023-06-26T07:04:59;7.87;;;4.00;;
69754;SDS011;57023;52.218;5.158;2023-06-26T07:07:28;7.03;;;3.78;;
69754;SDS011;57023;52.218;5.158;2023-06-26T07:09:53;8.05;;;3.83;;
69754;SDS011;57023;52.218;5.158;2023-06-26T07:12:19;8.10;;;3.90;;
69754;SDS011;57023;52.218;5.158;2023-06-26T07:14:44;6.32;;;3.60;;
69754;SDS011;57023;52.218;5.158;2023-06-26T07:17:09;7.10;;;4.22;;
69754;SDS011;57023;52.218;5.158;2023-06-26T07:19:35;7.63;;;3.60;;
69754;SDS011;57023;52.218;5.158;2023-06-26T07:22:00;8.18;;;3.58;;
69754;SDS011;57023;52.218;5.158;2023-06-26T07:24:25;5.95;;;3.42;;
69754;SDS011;57023;52.218;5.158;2023-06-26T07:26:50;9.63;;;3.67;;
69754;SDS011;57023;52.218;5.158;2023-06-26T07:29:16;9.23;;;3.47;;
69754;SDS011;57023;52.218;5.158;2023-06-26T07:31:41;9.98;;;3.60;;
69754;SDS011;57023;52.218;5.158;2023-06-26T07:34:07;7.10;;;3.67;;
69754;SDS011;57023;52.218;5.158;2023-06-26T07:36:32;6.70;;;3.13;;
69754;SDS011;57023;52.218;5.158;2023-06-26T07:38:57;6.70;;;3.22;;
69754;SDS011;57023;52.218;5.158;2023-06-26T07:41:23;8.77;;;3.35;;
69754;SDS011;57023;52.218;5.158;2023-06-26T07:43:48;6.35;;;3.20;;
69754;SDS011;57023;52.218;5.158;2023-06-26T07:46:13;6.38;;;3.05;;
69754;SDS011;57023;52.218;5.158;2023-06-26T07:48:38;7.07;;;3.38;;
69754;SDS011;57023;52.218;5.158;2023-06-26T07:51:04;6.82;;;3.38;;
69754;SDS011;57023;52.218;5.158;2023-06-26T07:53:29;7.38;;;3.75;;
69754;SDS011;57023;52.218;5.158;2023-06-26T07:55:54;7.32;;;3.63;;
69754;SDS011;57023;52.218;5.158;2023-06-26T07:58:20;6.55;;;3.33;;
69754;SDS011;57023;52.218;5.158;2023-06-26T08:00:45;7.47;;;3.38;;
69754;SDS011;57023;52.218;5.158;2023-06-26T08:03:12;8.35;;;3.53;;
69754;SDS011;57023;52.218;5.158;2023-06-26T08:05:37;7.22;;;3.10;;
69754;SDS011;57023;52.218;5.158;2023-06-26T08:08:04;8.82;;;3.47;;
69754;SDS011;57023;52.218;5.158;2023-06-26T08:10:29;7.27;;;3.07;;
69754;SDS011;57023;52.218;5.158;2023-06-26T08:12:55;10.07;;;3.50;;
69754;SDS011;57023;52.218;5.158;2023-06-26T08:15:21;9.33;;;3.00;;
69754;SDS011;57023;52.218;5.158;2023-06-26T08:17:46;6.97;;;2.90;;
69754;SDS011;57023;52.218;5.158;2023-06-26T08:20:12;5.75;;;2.90;;
69754;SDS011;57023;52.218;5.158;2023-06-26T08:22:37;7.93;;;3.07;;
69754;SDS011;57023;52.218;5.158;2023-06-26T08:25:03;8.55;;;3.03;;
69754;SDS011;57023;52.218;5.158;2023-06-26T08:27:29;7.47;;;2.97;;
69754;SDS011;57023;52.218;5.158;2023-06-26T08:29:54;6.70;;;2.73;;
69754;SDS011;57023;52.218;5.158;2023-06-26T08:32:19;6.93;;;2.90;;
69754;SDS011;57023;52.218;5.158;2023-06-26T08:34:45;7.38;;;2.63;;
69754;SDS011;57023;52.218;5.158;2023-06-26T08:37:10;7.20;;;2.80;;
69754;SDS011;57023;52.218;5.158;2023-06-26T08:39:36;9.02;;;2.80;;
69754;SDS011;57023;52.218;5.158;2023-06-26T08:42:01;6.68;;;2.90;;
69754;SDS011;57023;52.218;5.158;2023-06-26T08:44:26;6.77;;;2.83;;
69754;SDS011;57023;52.218;5.158;2023-06-26T08:46:52;5.60;;;3.00;;
69754;SDS011;57023;52.218;5.158;2023-06-26T08:49:18;6.20;;;3.17;;
69754;SDS011;57023;52.218;5.158;2023-06-26T08:51:50;8.90;;;2.85;;
69754;SDS011;57023;52.218;5.158;2023-06-26T08:54:17;7.80;;;2.80;;
69754;SDS011;57023;52.218;5.158;2023-06-26T08:56:47;8.18;;;2.80;;
69754;SDS011;57023;52.218;5.158;2023-06-26T09:01:39;6.87;;;2.60;;
69754;SDS011;57023;52.218;5.158;2023-06-26T09:04:05;5.83;;;3.07;;
69754;SDS011;57023;52.218;5.158;2023-06-26T09:06:31;7.60;;;2.70;;
69754;SDS011;57023;52.218;5.158;2023-06-26T09:08:57;4.60;;;2.80;;
69754;SDS011;57023;52.218;5.158;2023-06-26T09:11:22;7.37;;;2.90;;
69754;SDS011;57023;52.218;5.158;2023-06-26T09:13:48;5.63;;;2.80;;
69754;SDS011;57023;52.218;5.158;2023-06-26T09:16:15;7.83;;;2.80;;
69754;SDS011;57023;52.218;5.158;2023-06-26T09:18:40;5.65;;;2.65;;
69754;SDS011;57023;52.218;5.158;2023-06-26T09:21:07;6.45;;;2.60;;
69754;SDS011;57023;52.218;5.158;2023-06-26T09:23:33;7.25;;;2.88;;
69754;SDS011;57023;52.218;5.158;2023-06-26T09:25:59;5.10;;;2.70;;
69754;SDS011;57023;52.218;5.158;2023-06-26T09:28:27;6.53;;;3.05;;
69754;SDS011;57023;52.218;5.158;2023-06-26T09:30:53;8.73;;;3.03;;
69754;SDS011;57023;52.218;5.158;2023-06-26T09:33:19;7.03;;;2.90;;
69754;SDS011;57023;52.218;5.158;2023-06-26T09:35:46;6.18;;;2.55;;
69754;SDS011;57023;52.218;5.158;2023-06-26T09:38:12;7.55;;;2.83;;
69754;SDS011;57023;52.218;5.158;2023-06-26T09:40:38;6.97;;;2.70;;
69754;SDS011;57023;52.218;5.158;2023-06-26T09:43:04;6.63;;;2.67;;
69754;SDS011;57023;52.218;5.158;2023-06-26T09:45:31;6.80;;;2.53;;
69754;SDS011;57023;52.218;5.158;2023-06-26T09:48:00;5.35;;;2.60;;
69754;SDS011;57023;52.218;5.158;2023-06-26T09:50:28;5.13;;;2.60;;
69754;SDS011;57023;52.218;5.158;2023-06-26T09:52:53;5.33;;;2.37;;
69754;SDS011;57023;52.218;5.158;2023-06-26T09:55:19;5.53;;;2.40;;
69754;SDS011;57023;52.218;5.158;2023-06-26T09:57:47;5.97;;;2.47;;
69754;SDS011;57023;52.218;5.158;2023-06-26T10:00:13;7.05;;;2.55;;
69754;SDS011;57023;52.218;5.158;2023-06-26T10:02:39;4.32;;;2.20;;
69754;SDS011;57023;52.218;5.158;2023-06-26T10:05:04;8.43;;;2.43;;
69754;SDS011;57023;52.218;5.158;2023-06-26T10:07:30;5.17;;;2.33;;
69754;SDS011;57023;52.218;5.158;2023-06-26T10:09:56;5.07;;;2.10;;
69754;SDS011;57023;52.218;5.158;2023-06-26T10:12:40;6.00;;;2.40;;
69754;SDS011;57023;52.218;5.158;2023-06-26T10:15:05;4.93;;;2.28;;
69754;SDS011;57023;52.218;5.158;2023-06-26T10:17:32;6.32;;;2.20;;
69754;SDS011;57023;52.218;5.158;2023-06-26T10:20:01;6.25;;;2.33;;
69754;SDS011;57023;52.218;5.158;2023-06-26T10:22:29;5.65;;;3.50;;
69754;SDS011;57023;52.218;5.158;2023-06-26T10:24:59;6.47;;;2.40;;
69754;SDS011;57023;52.218;5.158;2023-06-26T10:29:52;6.75;;;2.55;;
69754;SDS011;57023;52.218;5.158;2023-06-26T10:32:18;5.03;;;2.50;;
69754;SDS011;57023;52.218;5.158;2023-06-26T10:34:45;6.20;;;2.30;;
69754;SDS011;57023;52.218;5.158;2023-06-26T10:37:11;6.50;;;2.70;;
69754;SDS011;57023;52.218;5.158;2023-06-26T10:39:51;6.30;;;2.58;;
69754;SDS011;57023;52.218;5.158;2023-06-26T10:42:19;5.78;;;2.35;;
69754;SDS011;57023;52.218;5.158;2023-06-26T10:44:53;6.13;;;2.40;;
69754;SDS011;57023;52.218;5.158;2023-06-26T10:47:31;6.03;;;2.73;;
69754;SDS011;57023;52.218;5.158;2023-06-26T10:56:03;6.38;;;2.50;;
69754;SDS011;57023;52.218;5.158;2023-06-26T11:03:40;3.53;;;2.10;;
69754;SDS011;57023;52.218;5.158;2023-06-26T11:06:12;5.68;;;2.20;;
69754;SDS011;57023;52.218;5.158;2023-06-26T11:08:45;6.18;;;2.70;;
69754;SDS011;57023;52.218;5.158;2023-06-26T11:11:14;5.97;;;2.40;;
69754;SDS011;57023;52.218;5.158;2023-06-26T11:13:40;6.10;;;2.30;;
69754;SDS011;57023;52.218;5.158;2023-06-26T11:16:05;4.18;;;2.30;;
69754;SDS011;57023;52.218;5.158;2023-06-26T11:18:31;8.17;;;2.30;;
69754;SDS011;57023;52.218;5.158;2023-06-26T11:21:06;6.38;;;2.20;;
69754;SDS011;57023;52.218;5.158;2023-06-26T11:23:32;6.60;;;2.25;;
69754;SDS011;57023;52.218;5.158;2023-06-26T11:26:16;8.45;;;2.40;;
69754;SDS011;57023;52.218;5.158;2023-06-26T11:31:26;3.67;;;2.20;;
69754;SDS011;57023;52.218;5.158;2023-06-26T11:38:44;5.83;;;2.10;;
69754;SDS011;57023;52.218;5.158;2023-06-26T11:41:09;5.17;;;2.40;;
69754;SDS011;57023;52.218;5.158;2023-06-26T11:43:34;5.00;;;1.90;;
69754;SDS011;57023;52.218;5.158;2023-06-26T11:46:00;4.30;;;2.00;;
69754;SDS011;57023;52.218;5.158;2023-06-26T11:48:25;4.93;;;1.93;;
69754;SDS011;57023;52.218;5.158;2023-06-26T11:50:51;4.50;;;1.93;;
69754;SDS011;57023;52.218;5.158;2023-06-26T11:53:16;5.70;;;2.00;;
69754;SDS011;57023;52.218;5.158;2023-06-26T11:55:42;6.87;;;2.03;;
69754;SDS011;57023;52.218;5.158;2023-06-26T11:58:08;5.15;;;2.15;;
69754;SDS011;57023;52.218;5.158;2023-06-26T12:00:33;4.83;;;2.10;;
69754;SDS011;57023;52.218;5.158;2023-06-26T12:02:58;5.40;;;2.03;;
69754;SDS011;57023;52.218;5.158;2023-06-26T12:05:24;5.23;;;2.13;;
69754;SDS011;57023;52.218;5.158;2023-06-26T12:07:49;3.97;;;2.10;;
69754;SDS011;57023;52.218;5.158;2023-06-26T12:10:15;7.57;;;1.98;;
69754;SDS011;57023;52.218;5.158;2023-06-26T12:12:41;3.97;;;1.93;;
69754;SDS011;57023;52.218;5.158;2023-06-26T12:15:08;3.40;;;1.83;;
69754;SDS011;57023;52.218;5.158;2023-06-26T12:17:37;4.85;;;2.05;;
69754;SDS011;57023;52.218;5.158;2023-06-26T12:20:04;5.63;;;2.20;;
69754;SDS011;57023;52.218;5.158;2023-06-26T12:22:34;5.88;;;2.10;;
69754;SDS011;57023;52.218;5.158;2023-06-26T12:24:59;3.20;;;1.80;;
69754;SDS011;57023;52.218;5.158;2023-06-26T12:27:25;4.67;;;2.10;;
69754;SDS011;57023;52.218;5.158;2023-06-26T12:29:51;5.23;;;2.10;;
69754;SDS011;57023;52.218;5.158;2023-06-26T12:32:37;5.05;;;2.00;;
69754;SDS011;57023;52.218;5.158;2023-06-26T12:35:03;4.03;;;2.10;;
69754;SDS011;57023;52.218;5.158;2023-06-26T12:37:28;5.13;;;2.40;;
69754;SDS011;57023;52.218;5.158;2023-06-26T12:39:57;5.50;;;2.30;;
69754;SDS011;57023;52.218;5.158;2023-06-26T12:42:23;5.47;;;2.20;;
69754;SDS011;57023;52.218;5.158;2023-06-26T12:44:50;5.43;;;2.20;;
69754;SDS011;57023;52.218;5.158;2023-06-26T12:47:17;4.93;;;2.30;;
69754;SDS011;57023;52.218;5.158;2023-06-26T12:49:44;5.18;;;2.50;;
69754;SDS011;57023;52.218;5.158;2023-06-26T12:52:14;5.00;;;1.98;;
69754;SDS011;57023;52.218;5.158;2023-06-26T12:54:41;6.88;;;2.28;;
69754;SDS011;57023;52.218;5.158;2023-06-26T12:57:07;4.80;;;2.20;;
69754;SDS011;57023;52.218;5.158;2023-06-26T12:59:33;3.95;;;2.00;;
69754;SDS011;57023;52.218;5.158;2023-06-26T13:02:00;6.53;;;2.40;;
69754;SDS011;57023;52.218;5.158;2023-06-26T13:04:26;4.50;;;2.13;;
69754;SDS011;57023;52.218;5.158;2023-06-26T13:06:51;5.22;;;2.00;;
69754;SDS011;57023;52.218;5.158;2023-06-26T13:09:19;4.38;;;2.20;;
69754;SDS011;57023;52.218;5.158;2023-06-26T13:11:45;5.22;;;2.10;;
69754;SDS011;57023;52.218;5.158;2023-06-26T13:14:10;5.83;;;1.93;;
69754;SDS011;57023;52.218;5.158;2023-06-26T13:16:36;6.33;;;2.67;;
69754;SDS011;57023;52.218;5.158;2023-06-26T13:19:01;5.13;;;2.28;;
69754;SDS011;57023;52.218;5.158;2023-06-26T13:21:27;6.97;;;2.33;;
69754;SDS011;57023;52.218;5.158;2023-06-26T13:23:53;6.13;;;2.10;;
69754;SDS011;57023;52.218;5.158;2023-06-26T13:26:19;4.53;;;2.00;;
69754;SDS011;57023;52.218;5.158;2023-06-26T13:28:44;5.32;;;2.15;;
69754;SDS011;57023;52.218;5.158;2023-06-26T13:31:10;4.60;;;1.93;;
69754;SDS011;57023;52.218;5.158;2023-06-26T13:33:35;4.27;;;1.90;;
69754;SDS011;57023;52.218;5.158;2023-06-26T13:36:00;4.93;;;2.13;;
69754;SDS011;57023;52.218;5.158;2023-06-26T13:38:29;5.78;;;2.17;;
69754;SDS011;57023;52.218;5.158;2023-06-26T13:40:55;4.47;;;2.13;;
69754;SDS011;57023;52.218;5.158;2023-06-26T13:43:22;4.32;;;2.10;;
69754;SDS011;57023;52.218;5.158;2023-06-26T13:45:47;4.25;;;1.95;;
69754;SDS011;57023;52.218;5.158;2023-06-26T13:50:39;5.40;;;2.17;;
69754;SDS011;57023;52.218;5.158;2023-06-26T13:53:04;4.57;;;2.00;;
69754;SDS011;57023;52.218;5.158;2023-06-26T13:55:31;3.83;;;1.92;;
69754;SDS011;57023;52.218;5.158;2023-06-26T13:57:57;5.72;;;2.00;;
69754;SDS011;57023;52.218;5.158;2023-06-26T14:00:23;5.85;;;2.03;;
69754;SDS011;57023;52.218;5.158;2023-06-26T14:02:49;4.23;;;2.20;;
69754;SDS011;57023;52.218;5.158;2023-06-26T14:05:14;5.67;;;2.07;;
69754;SDS011;57023;52.218;5.158;2023-06-26T14:07:39;3.87;;;1.90;;
69754;SDS011;57023;52.218;5.158;2023-06-26T14:10:05;4.38;;;1.77;;
69754;SDS011;57023;52.218;5.158;2023-06-26T14:12:31;4.25;;;2.00;;
69754;SDS011;57023;52.218;5.158;2023-06-26T14:14:57;3.80;;;2.10;;
69754;SDS011;57023;52.218;5.158;2023-06-26T14:17:23;4.80;;;2.00;;
69754;SDS011;57023;52.218;5.158;2023-06-26T14:19:50;5.05;;;2.10;;
69754;SDS011;57023;52.218;5.158;2023-06-26T14:24:42;3.43;;;1.90;;
69754;SDS011;57023;52.218;5.158;2023-06-26T14:27:07;4.30;;;1.80;;
69754;SDS011;57023;52.218;5.158;2023-06-26T14:29:33;4.40;;;2.07;;
69754;SDS011;57023;52.218;5.158;2023-06-26T14:31:58;4.57;;;2.20;;
69754;SDS011;57023;52.218;5.158;2023-06-26T14:34:23;4.97;;;2.20;;
69754;SDS011;57023;52.218;5.158;2023-06-26T14:36:49;4.37;;;2.23;;
69754;SDS011;57023;52.218;5.158;2023-06-26T14:39:14;6.60;;;2.07;;
69754;SDS011;57023;52.218;5.158;2023-06-26T14:41:39;4.33;;;2.20;;
69754;SDS011;57023;52.218;5.158;2023-06-26T14:44:05;4.50;;;2.30;;
69754;SDS011;57023;52.218;5.158;2023-06-26T14:46:33;4.28;;;2.20;;
69754;SDS011;57023;52.218;5.158;2023-06-26T14:48:58;4.80;;;2.20;;
69754;SDS011;57023;52.218;5.158;2023-06-26T14:51:23;5.17;;;2.10;;
69754;SDS011;57023;52.218;5.158;2023-06-26T14:53:50;3.72;;;2.00;;
69754;SDS011;57023;52.218;5.158;2023-06-26T14:56:16;5.82;;;2.10;;
69754;SDS011;57023;52.218;5.158;2023-06-26T14:58:41;5.77;;;2.30;;
69754;SDS011;57023;52.218;5.158;2023-06-26T15:01:07;8.87;;;2.40;;
69754;SDS011;57023;52.218;5.158;2023-06-26T15:03:32;3.85;;;2.10;;
69754;SDS011;57023;52.218;5.158;2023-06-26T15:05:58;4.85;;;2.58;;
69754;SDS011;57023;52.218;5.158;2023-06-26T15:08:23;5.83;;;2.10;;
69754;SDS011;57023;52.218;5.158;2023-06-26T15:10:48;4.77;;;2.20;;
69754;SDS011;57023;52.218;5.158;2023-06-26T15:13:15;5.38;;;2.20;;
69754;SDS011;57023;52.218;5.158;2023-06-26T15:15:40;5.87;;;2.40;;
69754;SDS011;57023;52.218;5.158;2023-06-26T15:18:05;6.10;;;2.20;;